sensor_id;sensor_type;location;lat;lon;timestamp;temperature;humidity
21807;DHT22;11065;50.786;7.840;2022-08-03T00:01:48;22.80;40.80
21807;DHT22;11065;50.786;7.840;2022-08-03T00:04:16;22.80;40.80
21807;DHT22;11065;50.786;7.840;2022-08-03T00:06:43;22.80;40.90
21807;DHT22;11065;50.786;7.840;2022-08-03T00:09:10;22.70;40.90
21807;DHT22;11065;50.786;7.840;2022-08-03T00:11:37;22.70;41.00
21807;DHT22;11065;50.786;7.840;2022-08-03T00:14:05;22.70;41.10
21807;DHT22;11065;50.786;7.840;2022-08-03T00:16:32;22.60;41.60
21807;DHT22;11065;50.786;7.840;2022-08-03T00:18:59;22.60;41.30
21807;DHT22;11065;50.786;7.840;2022-08-03T00:21:27;22.60;41.30
21807;DHT22;11065;50.786;7.840;2022-08-03T00:23:54;22.50;41.40
21807;DHT22;11065;50.786;7.840;2022-08-03T00:26:21;22.50;41.40
21807;DHT22;11065;50.786;7.840;2022-08-03T00:28:48;22.40;41.50
21807;DHT22;11065;50.786;7.840;2022-08-03T00:31:15;22.40;42.10
21807;DHT22;11065;50.786;7.840;2022-08-03T00:34:02;22.40;41.70
21807;DHT22;11065;50.786;7.840;2022-08-03T00:36:29;22.40;41.70
21807;DHT22;11065;50.786;7.840;2022-08-03T00:38:56;22.30;41.70
21807;DHT22;11065;50.786;7.840;2022-08-03T00:41:23;22.30;41.80
21807;DHT22;11065;50.786;7.840;2022-08-03T00:43:50;22.30;41.90
21807;DHT22;11065;50.786;7.840;2022-08-03T00:46:17;22.20;42.00
21807;DHT22;11065;50.786;7.840;2022-08-03T00:48:51;22.10;42.00
21807;DHT22;11065;50.786;7.840;2022-08-03T00:51:19;22.10;42.20
21807;DHT22;11065;50.786;7.840;2022-08-03T00:53:47;22.10;42.20
21807;DHT22;11065;50.786;7.840;2022-08-03T00:56:15;22.10;42.20
21807;DHT22;11065;50.786;7.840;2022-08-03T00:58:44;22.00;42.20
21807;DHT22;11065;50.786;7.840;2022-08-03T01:01:11;21.90;42.30
21807;DHT22;11065;50.786;7.840;2022-08-03T01:03:39;21.90;42.40
21807;DHT22;11065;50.786;7.840;2022-08-03T01:06:19;21.90;42.50
21807;DHT22;11065;50.786;7.840;2022-08-03T01:14:33;21.70;42.60
21807;DHT22;11065;50.786;7.840;2022-08-03T01:17:19;21.70;42.90
21807;DHT22;11065;50.786;7.840;2022-08-03T01:31:00;21.50;43.20
21807;DHT22;11065;50.786;7.840;2022-08-03T01:33:39;21.50;43.10
21807;DHT22;11065;50.786;7.840;2022-08-03T01:36:16;21.40;43.40
21807;DHT22;11065;50.786;7.840;2022-08-03T01:38:57;21.40;43.50
21807;DHT22;11065;50.786;7.840;2022-08-03T01:41:40;21.30;43.60
21807;DHT22;11065;50.786;7.840;2022-08-03T01:44:10;21.30;43.80
21807;DHT22;11065;50.786;7.840;2022-08-03T01:47:00;21.30;43.50
21807;DHT22;11065;50.786;7.840;2022-08-03T01:49:31;21.30;43.60
21807;DHT22;11065;50.786;7.840;2022-08-03T01:51:59;21.20;43.60
21807;DHT22;11065;50.786;7.840;2022-08-03T01:54:34;21.20;43.60
21807;DHT22;11065;50.786;7.840;2022-08-03T01:57:03;21.10;43.70
21807;DHT22;11065;50.786;7.840;2022-08-03T01:59:31;21.10;43.70
21807;DHT22;11065;50.786;7.840;2022-08-03T02:02:01;21.10;43.80
21807;DHT22;11065;50.786;7.840;2022-08-03T02:04:49;21.10;43.90
21807;DHT22;11065;50.786;7.840;2022-08-03T02:07:18;21.00;43.90
21807;DHT22;11065;50.786;7.840;2022-08-03T02:09:49;21.00;43.90
21807;DHT22;11065;50.786;7.840;2022-08-03T02:12:17;20.90;44.10
21807;DHT22;11065;50.786;7.840;2022-08-03T02:14:46;20.90;44.10
21807;DHT22;11065;50.786;7.840;2022-08-03T02:17:15;20.90;44.20
21807;DHT22;11065;50.786;7.840;2022-08-03T02:19:42;20.90;44.20
21807;DHT22;11065;50.786;7.840;2022-08-03T02:22:10;20.90;44.30
21807;DHT22;11065;50.786;7.840;2022-08-03T02:24:38;20.80;44.30
21807;DHT22;11065;50.786;7.840;2022-08-03T02:27:12;20.80;44.40
21807;DHT22;11065;50.786;7.840;2022-08-03T02:29:45;20.80;44.60
21807;DHT22;11065;50.786;7.840;2022-08-03T02:32:16;20.80;44.60
21807;DHT22;11065;50.786;7.840;2022-08-03T02:34:49;20.70;44.60
21807;DHT22;11065;50.786;7.840;2022-08-03T02:37:18;20.70;44.70
21807;DHT22;11065;50.786;7.840;2022-08-03T02:39:46;20.70;44.70
21807;DHT22;11065;50.786;7.840;2022-08-03T02:42:16;20.60;44.70
21807;DHT22;11065;50.786;7.840;2022-08-03T02:44:47;20.60;44.80
21807;DHT22;11065;50.786;7.840;2022-08-03T02:47:18;20.60;44.90
21807;DHT22;11065;50.786;7.840;2022-08-03T02:49:48;20.60;44.90
21807;DHT22;11065;50.786;7.840;2022-08-03T02:52:23;20.60;45.00
21807;DHT22;11065;50.786;7.840;2022-08-03T02:54:53;20.50;45.10
21807;DHT22;11065;50.786;7.840;2022-08-03T02:57:22;20.50;45.10
21807;DHT22;11065;50.786;7.840;2022-08-03T02:59:51;20.50;45.10
21807;DHT22;11065;50.786;7.840;2022-08-03T03:02:19;20.40;45.10
21807;DHT22;11065;50.786;7.840;2022-08-03T03:04:48;20.40;45.20
21807;DHT22;11065;50.786;7.840;2022-08-03T03:07:36;20.40;45.20
21807;DHT22;11065;50.786;7.840;2022-08-03T03:10:22;20.40;45.20
21807;DHT22;11065;50.786;7.840;2022-08-03T03:12:52;20.30;45.40
21807;DHT22;11065;50.786;7.840;2022-08-03T03:15:22;20.30;45.30
21807;DHT22;11065;50.786;7.840;2022-08-03T03:17:50;20.30;45.40
21807;DHT22;11065;50.786;7.840;2022-08-03T03:20:20;20.20;45.40
21807;DHT22;11065;50.786;7.840;2022-08-03T03:22:58;20.20;45.50
21807;DHT22;11065;50.786;7.840;2022-08-03T03:25:25;20.20;45.60
21807;DHT22;11065;50.786;7.840;2022-08-03T03:27:53;20.20;45.70
21807;DHT22;11065;50.786;7.840;2022-08-03T03:30:20;20.10;45.70
21807;DHT22;11065;50.786;7.840;2022-08-03T03:32:47;20.10;45.70
21807;DHT22;11065;50.786;7.840;2022-08-03T03:35:14;20.10;45.80
21807;DHT22;11065;50.786;7.840;2022-08-03T03:37:42;20.10;45.80
21807;DHT22;11065;50.786;7.840;2022-08-03T03:40:09;20.00;45.90
21807;DHT22;11065;50.786;7.840;2022-08-03T03:42:36;20.00;45.90
21807;DHT22;11065;50.786;7.840;2022-08-03T03:45:06;20.00;46.00
21807;DHT22;11065;50.786;7.840;2022-08-03T03:47:34;20.00;46.10
21807;DHT22;11065;50.786;7.840;2022-08-03T03:50:05;19.90;46.10
21807;DHT22;11065;50.786;7.840;2022-08-03T03:52:33;20.00;46.20
21807;DHT22;11065;50.786;7.840;2022-08-03T03:55:00;19.90;46.30
21807;DHT22;11065;50.786;7.840;2022-08-03T03:57:27;19.90;46.40
21807;DHT22;11065;50.786;7.840;2022-08-03T03:59:55;19.90;46.50
21807;DHT22;11065;50.786;7.840;2022-08-03T04:02:22;19.80;46.50
21807;DHT22;11065;50.786;7.840;2022-08-03T04:04:48;19.80;46.50
21807;DHT22;11065;50.786;7.840;2022-08-03T04:07:45;19.70;46.50
21807;DHT22;11065;50.786;7.840;2022-08-03T04:10:38;19.70;46.90
21807;DHT22;11065;50.786;7.840;2022-08-03T04:13:35;19.70;46.60
21807;DHT22;11065;50.786;7.840;2022-08-03T04:16:04;19.70;46.80
21807;DHT22;11065;50.786;7.840;2022-08-03T04:18:33;19.70;46.70
21807;DHT22;11065;50.786;7.840;2022-08-03T04:21:03;19.60;46.70
21807;DHT22;11065;50.786;7.840;2022-08-03T04:23:33;19.60;46.80
21807;DHT22;11065;50.786;7.840;2022-08-03T04:26:02;19.60;46.90
21807;DHT22;11065;50.786;7.840;2022-08-03T04:28:31;19.70;47.00
21807;DHT22;11065;50.786;7.840;2022-08-03T04:31:00;19.60;47.00
21807;DHT22;11065;50.786;7.840;2022-08-03T04:33:31;19.60;47.10
21807;DHT22;11065;50.786;7.840;2022-08-03T04:36:04;19.60;47.10
21807;DHT22;11065;50.786;7.840;2022-08-03T04:38:38;19.60;47.20
21807;DHT22;11065;50.786;7.840;2022-08-03T04:41:06;19.60;47.20
21807;DHT22;11065;50.786;7.840;2022-08-03T04:43:35;19.60;47.20
21807;DHT22;11065;50.786;7.840;2022-08-03T04:46:03;19.60;47.30
21807;DHT22;11065;50.786;7.840;2022-08-03T04:48:30;19.60;47.30
21807;DHT22;11065;50.786;7.840;2022-08-03T04:50:57;19.60;47.30
21807;DHT22;11065;50.786;7.840;2022-08-03T04:53:26;19.60;47.50
21807;DHT22;11065;50.786;7.840;2022-08-03T04:55:53;19.60;47.60
21807;DHT22;11065;50.786;7.840;2022-08-03T04:58:19;19.60;47.70
21807;DHT22;11065;50.786;7.840;2022-08-03T05:00:46;19.60;47.70
21807;DHT22;11065;50.786;7.840;2022-08-03T05:03:16;19.60;47.80
21807;DHT22;11065;50.786;7.840;2022-08-03T05:05:54;19.60;47.80
21807;DHT22;11065;50.786;7.840;2022-08-03T05:08:37;19.60;48.00
21807;DHT22;11065;50.786;7.840;2022-08-03T05:11:13;19.60;47.90
21807;DHT22;11065;50.786;7.840;2022-08-03T05:13:40;19.60;48.00
21807;DHT22;11065;50.786;7.840;2022-08-03T05:16:07;19.60;48.00
21807;DHT22;11065;50.786;7.840;2022-08-03T05:18:34;19.60;48.10
21807;DHT22;11065;50.786;7.840;2022-08-03T05:21:01;19.60;48.10
21807;DHT22;11065;50.786;7.840;2022-08-03T05:23:28;19.60;48.20
21807;DHT22;11065;50.786;7.840;2022-08-03T05:25:55;19.70;48.30
21807;DHT22;11065;50.786;7.840;2022-08-03T05:28:22;19.70;48.30
21807;DHT22;11065;50.786;7.840;2022-08-03T05:30:49;19.70;48.30
21807;DHT22;11065;50.786;7.840;2022-08-03T05:33:16;19.70;48.30
21807;DHT22;11065;50.786;7.840;2022-08-03T05:35:42;19.80;48.40
21807;DHT22;11065;50.786;7.840;2022-08-03T05:38:28;19.70;48.40
21807;DHT22;11065;50.786;7.840;2022-08-03T05:41:03;19.80;48.30
21807;DHT22;11065;50.786;7.840;2022-08-03T05:43:52;19.80;48.60
21807;DHT22;11065;50.786;7.840;2022-08-03T05:46:20;19.80;48.50
21807;DHT22;11065;50.786;7.840;2022-08-03T05:48:47;19.90;48.60
21807;DHT22;11065;50.786;7.840;2022-08-03T05:51:14;19.90;48.50
21807;DHT22;11065;50.786;7.840;2022-08-03T05:53:42;19.80;48.50
21807;DHT22;11065;50.786;7.840;2022-08-03T05:56:09;19.90;48.60
21807;DHT22;11065;50.786;7.840;2022-08-03T05:58:42;19.90;48.60
21807;DHT22;11065;50.786;7.840;2022-08-03T06:01:10;19.90;48.70
21807;DHT22;11065;50.786;7.840;2022-08-03T06:03:37;20.00;48.70
21807;DHT22;11065;50.786;7.840;2022-08-03T06:06:04;20.00;48.90
21807;DHT22;11065;50.786;7.840;2022-08-03T06:08:30;20.10;49.00
21807;DHT22;11065;50.786;7.840;2022-08-03T06:10:57;20.10;49.00
21807;DHT22;11065;50.786;7.840;2022-08-03T06:13:24;20.10;49.10
21807;DHT22;11065;50.786;7.840;2022-08-03T06:15:51;20.20;49.10
21807;DHT22;11065;50.786;7.840;2022-08-03T06:18:17;20.20;49.10
21807;DHT22;11065;50.786;7.840;2022-08-03T06:20:44;20.20;49.10
21807;DHT22;11065;50.786;7.840;2022-08-03T06:23:15;20.30;49.10
21807;DHT22;11065;50.786;7.840;2022-08-03T06:25:44;20.30;49.00
21807;DHT22;11065;50.786;7.840;2022-08-03T06:28:11;20.40;49.10
21807;DHT22;11065;50.786;7.840;2022-08-03T06:31:00;20.40;49.10
21807;DHT22;11065;50.786;7.840;2022-08-03T06:33:27;20.50;49.60
21807;DHT22;11065;50.786;7.840;2022-08-03T06:36:14;20.60;49.40
21807;DHT22;11065;50.786;7.840;2022-08-03T06:38:41;20.60;49.20
21807;DHT22;11065;50.786;7.840;2022-08-03T06:41:08;20.70;49.30
21807;DHT22;11065;50.786;7.840;2022-08-03T06:43:34;20.70;49.20
21807;DHT22;11065;50.786;7.840;2022-08-03T06:46:23;20.80;49.40
21807;DHT22;11065;50.786;7.840;2022-08-03T06:48:51;20.90;49.40
21807;DHT22;11065;50.786;7.840;2022-08-03T06:51:18;20.90;49.30
21807;DHT22;11065;50.786;7.840;2022-08-03T06:53:45;21.00;49.40
21807;DHT22;11065;50.786;7.840;2022-08-03T06:56:12;21.00;49.50
21807;DHT22;11065;50.786;7.840;2022-08-03T06:58:38;21.10;49.50
21807;DHT22;11065;50.786;7.840;2022-08-03T07:01:05;21.20;49.50
21807;DHT22;11065;50.786;7.840;2022-08-03T07:03:32;21.30;49.60
21807;DHT22;11065;50.786;7.840;2022-08-03T07:05:59;21.30;49.50
21807;DHT22;11065;50.786;7.840;2022-08-03T07:08:26;21.40;49.50
21807;DHT22;11065;50.786;7.840;2022-08-03T07:11:00;21.50;49.60
21807;DHT22;11065;50.786;7.840;2022-08-03T07:13:26;21.50;49.50
21807;DHT22;11065;50.786;7.840;2022-08-03T07:15:53;21.60;49.40
21807;DHT22;11065;50.786;7.840;2022-08-03T07:18:22;21.70;49.40
21807;DHT22;11065;50.786;7.840;2022-08-03T07:20:56;21.70;49.40
21807;DHT22;11065;50.786;7.840;2022-08-03T07:23:23;21.80;49.40
21807;DHT22;11065;50.786;7.840;2022-08-03T07:25:51;21.90;49.30
21807;DHT22;11065;50.786;7.840;2022-08-03T07:28:19;21.90;49.30
21807;DHT22;11065;50.786;7.840;2022-08-03T07:30:46;22.10;49.40
21807;DHT22;11065;50.786;7.840;2022-08-03T07:33:13;22.10;49.30
21807;DHT22;11065;50.786;7.840;2022-08-03T07:35:40;22.20;49.30
21807;DHT22;11065;50.786;7.840;2022-08-03T07:38:07;22.30;49.30
21807;DHT22;11065;50.786;7.840;2022-08-03T07:40:34;22.40;49.30
21807;DHT22;11065;50.786;7.840;2022-08-03T07:43:00;22.50;49.10
21807;DHT22;11065;50.786;7.840;2022-08-03T07:45:30;22.60;49.10
21807;DHT22;11065;50.786;7.840;2022-08-03T07:47:56;22.70;49.10
21807;DHT22;11065;50.786;7.840;2022-08-03T07:50:24;22.80;48.90
21807;DHT22;11065;50.786;7.840;2022-08-03T07:52:51;22.90;48.80
21807;DHT22;11065;50.786;7.840;2022-08-03T07:55:21;23.00;48.70
21807;DHT22;11065;50.786;7.840;2022-08-03T07:58:08;23.20;48.70
21807;DHT22;11065;50.786;7.840;2022-08-03T08:00:38;23.30;48.60
21807;DHT22;11065;50.786;7.840;2022-08-03T08:03:05;23.40;48.60
21807;DHT22;11065;50.786;7.840;2022-08-03T08:05:32;23.50;48.50
21807;DHT22;11065;50.786;7.840;2022-08-03T08:08:00;23.60;48.40
21807;DHT22;11065;50.786;7.840;2022-08-03T08:10:27;23.70;48.30
21807;DHT22;11065;50.786;7.840;2022-08-03T08:12:55;23.80;48.20
21807;DHT22;11065;50.786;7.840;2022-08-03T08:15:22;24.00;48.20
21807;DHT22;11065;50.786;7.840;2022-08-03T08:17:52;24.10;48.10
21807;DHT22;11065;50.786;7.840;2022-08-03T08:20:26;24.20;48.00
21807;DHT22;11065;50.786;7.840;2022-08-03T08:22:59;24.40;48.00
21807;DHT22;11065;50.786;7.840;2022-08-03T08:25:28;24.50;47.90
21807;DHT22;11065;50.786;7.840;2022-08-03T08:27:56;24.60;47.80
21807;DHT22;11065;50.786;7.840;2022-08-03T08:30:43;24.80;47.70
21807;DHT22;11065;50.786;7.840;2022-08-03T08:33:10;24.90;47.60
21807;DHT22;11065;50.786;7.840;2022-08-03T08:35:48;25.10;47.40
21807;DHT22;11065;50.786;7.840;2022-08-03T08:38:15;25.30;47.40
21807;DHT22;11065;50.786;7.840;2022-08-03T08:40:42;25.40;47.20
21807;DHT22;11065;50.786;7.840;2022-08-03T08:43:09;25.60;47.20
21807;DHT22;11065;50.786;7.840;2022-08-03T08:45:36;25.80;46.80
21807;DHT22;11065;50.786;7.840;2022-08-03T08:48:04;26.00;47.00
21807;DHT22;11065;50.786;7.840;2022-08-03T08:50:36;26.20;46.80
21807;DHT22;11065;50.786;7.840;2022-08-03T08:53:06;26.50;46.60
21807;DHT22;11065;50.786;7.840;2022-08-03T08:55:37;26.90;46.40
21807;DHT22;11065;50.786;7.840;2022-08-03T08:58:25;27.30;46.90
21807;DHT22;11065;50.786;7.840;2022-08-03T09:00:54;27.90;47.10
21807;DHT22;11065;50.786;7.840;2022-08-03T09:03:21;28.50;47.50
21807;DHT22;11065;50.786;7.840;2022-08-03T09:05:58;29.20;47.10
21807;DHT22;11065;50.786;7.840;2022-08-03T09:08:27;29.90;47.70
21807;DHT22;11065;50.786;7.840;2022-08-03T09:10:54;30.70;47.50
21807;DHT22;11065;50.786;7.840;2022-08-03T09:13:21;31.50;46.10
21807;DHT22;11065;50.786;7.840;2022-08-03T09:15:51;32.20;46.30
21807;DHT22;11065;50.786;7.840;2022-08-03T09:18:33;33.00;45.10
21807;DHT22;11065;50.786;7.840;2022-08-03T09:23:58;34.70;42.80
21807;DHT22;11065;50.786;7.840;2022-08-03T09:26:33;35.40;42.90
21807;DHT22;11065;50.786;7.840;2022-08-03T09:29:08;36.10;42.20
21807;DHT22;11065;50.786;7.840;2022-08-03T09:31:42;36.70;40.60
21807;DHT22;11065;50.786;7.840;2022-08-03T09:34:12;37.30;41.20
21807;DHT22;11065;50.786;7.840;2022-08-03T09:36:44;37.80;38.10
21807;DHT22;11065;50.786;7.840;2022-08-03T09:41:45;38.80;37.90
21807;DHT22;11065;50.786;7.840;2022-08-03T09:44:12;39.30;37.70
21807;DHT22;11065;50.786;7.840;2022-08-03T09:46:55;39.70;36.10
21807;DHT22;11065;50.786;7.840;2022-08-03T09:49:23;40.10;34.30
21807;DHT22;11065;50.786;7.840;2022-08-03T09:51:51;40.30;34.80
21807;DHT22;11065;50.786;7.840;2022-08-03T09:54:38;40.50;34.70
21807;DHT22;11065;50.786;7.840;2022-08-03T09:57:05;40.70;33.10
21807;DHT22;11065;50.786;7.840;2022-08-03T09:59:33;40.80;33.30
21807;DHT22;11065;50.786;7.840;2022-08-03T10:02:00;41.00;33.00
21807;DHT22;11065;50.786;7.840;2022-08-03T10:04:27;41.20;32.30
21807;DHT22;11065;50.786;7.840;2022-08-03T10:07:08;41.30;32.10
21807;DHT22;11065;50.786;7.840;2022-08-03T10:09:36;41.60;30.60
21807;DHT22;11065;50.786;7.840;2022-08-03T10:12:11;41.80;32.30
21807;DHT22;11065;50.786;7.840;2022-08-03T10:14:40;42.10;31.70
21807;DHT22;11065;50.786;7.840;2022-08-03T10:17:11;42.40;32.00
21807;DHT22;11065;50.786;7.840;2022-08-03T10:19:38;42.80;31.80
21807;DHT22;11065;50.786;7.840;2022-08-03T10:27:22;43.60;30.10
21807;DHT22;11065;50.786;7.840;2022-08-03T10:29:52;43.80;30.00
21807;DHT22;11065;50.786;7.840;2022-08-03T10:32:27;43.80;29.70
21807;DHT22;11065;50.786;7.840;2022-08-03T10:38:08;44.20;29.50
21807;DHT22;11065;50.786;7.840;2022-08-03T10:40:37;44.50;29.40
21807;DHT22;11065;50.786;7.840;2022-08-03T10:43:40;44.60;29.30
21807;DHT22;11065;50.786;7.840;2022-08-03T10:46:07;44.80;28.70
21807;DHT22;11065;50.786;7.840;2022-08-03T10:48:35;45.00;29.20
21807;DHT22;11065;50.786;7.840;2022-08-03T10:51:03;45.20;28.90
21807;DHT22;11065;50.786;7.840;2022-08-03T10:53:38;45.40;28.70
21807;DHT22;11065;50.786;7.840;2022-08-03T10:56:05;45.50;28.20
21807;DHT22;11065;50.786;7.840;2022-08-03T10:59:10;45.70;28.10
21807;DHT22;11065;50.786;7.840;2022-08-03T11:04:27;46.00;27.70
21807;DHT22;11065;50.786;7.840;2022-08-03T11:09:44;46.30;27.60
21807;DHT22;11065;50.786;7.840;2022-08-03T11:15:00;46.50;27.00
21807;DHT22;11065;50.786;7.840;2022-08-03T11:17:28;46.60;27.10
21807;DHT22;11065;50.786;7.840;2022-08-03T11:19:55;46.60;27.00
21807;DHT22;11065;50.786;7.840;2022-08-03T11:22:24;46.50;26.90
21807;DHT22;11065;50.786;7.840;2022-08-03T11:27:26;46.50;26.90
21807;DHT22;11065;50.786;7.840;2022-08-03T11:35:29;46.40;26.00
21807;DHT22;11065;50.786;7.840;2022-08-03T11:46:03;46.00;25.70
21807;DHT22;11065;50.786;7.840;2022-08-03T11:48:41;46.00;25.90
21807;DHT22;11065;50.786;7.840;2022-08-03T11:53:56;46.10;26.00
21807;DHT22;11065;50.786;7.840;2022-08-03T11:56:24;46.20;25.90
21807;DHT22;11065;50.786;7.840;2022-08-03T11:58:54;46.30;26.00
21807;DHT22;11065;50.786;7.840;2022-08-03T12:01:41;46.30;25.70
21807;DHT22;11065;50.786;7.840;2022-08-03T12:04:07;46.00;25.30
21807;DHT22;11065;50.786;7.840;2022-08-03T12:06:35;45.90;25.50
21807;DHT22;11065;50.786;7.840;2022-08-03T12:09:21;45.70;25.70
21807;DHT22;11065;50.786;7.840;2022-08-03T12:11:49;45.70;25.60
21807;DHT22;11065;50.786;7.840;2022-08-03T12:14:26;45.70;25.60
21807;DHT22;11065;50.786;7.840;2022-08-03T12:17:14;45.60;25.40
21807;DHT22;11065;50.786;7.840;2022-08-03T12:19:41;45.30;25.10
21807;DHT22;11065;50.786;7.840;2022-08-03T12:22:09;44.80;25.00
21807;DHT22;11065;50.786;7.840;2022-08-03T12:24:43;44.50;25.20
21807;DHT22;11065;50.786;7.840;2022-08-03T12:27:22;44.30;25.30
21807;DHT22;11065;50.786;7.840;2022-08-03T12:29:53;44.10;25.50
21807;DHT22;11065;50.786;7.840;2022-08-03T12:32:25;44.00;25.80
21807;DHT22;11065;50.786;7.840;2022-08-03T12:34:53;44.10;26.00
21807;DHT22;11065;50.786;7.840;2022-08-03T12:37:21;44.20;26.00
21807;DHT22;11065;50.786;7.840;2022-08-03T12:39:56;44.40;26.00
21807;DHT22;11065;50.786;7.840;2022-08-03T12:42:37;44.70;25.90
21807;DHT22;11065;50.786;7.840;2022-08-03T12:45:24;45.00;25.40
21807;DHT22;11065;50.786;7.840;2022-08-03T12:47:56;45.20;25.40
21807;DHT22;11065;50.786;7.840;2022-08-03T12:50:34;45.30;25.50
21807;DHT22;11065;50.786;7.840;2022-08-03T12:53:05;45.40;25.20
21807;DHT22;11065;50.786;7.840;2022-08-03T12:55:36;45.50;25.30
21807;DHT22;11065;50.786;7.840;2022-08-03T12:58:34;45.60;25.30
21807;DHT22;11065;50.786;7.840;2022-08-03T13:01:03;45.60;25.00
21807;DHT22;11065;50.786;7.840;2022-08-03T13:03:41;45.60;25.10
21807;DHT22;11065;50.786;7.840;2022-08-03T13:06:24;45.60;24.60
21807;DHT22;11065;50.786;7.840;2022-08-03T13:09:04;45.60;24.80
21807;DHT22;11065;50.786;7.840;2022-08-03T13:11:32;45.60;24.50
21807;DHT22;11065;50.786;7.840;2022-08-03T13:14:19;45.40;24.70
21807;DHT22;11065;50.786;7.840;2022-08-03T13:16:49;45.40;24.90
21807;DHT22;11065;50.786;7.840;2022-08-03T13:19:16;45.40;24.60
21807;DHT22;11065;50.786;7.840;2022-08-03T13:21:43;45.50;24.90
21807;DHT22;11065;50.786;7.840;2022-08-03T13:24:31;45.40;24.90
21807;DHT22;11065;50.786;7.840;2022-08-03T13:26:58;45.60;25.00
21807;DHT22;11065;50.786;7.840;2022-08-03T13:29:25;45.70;24.80
21807;DHT22;11065;50.786;7.840;2022-08-03T13:31:52;45.70;24.80
21807;DHT22;11065;50.786;7.840;2022-08-03T13:34:19;45.80;24.70
21807;DHT22;11065;50.786;7.840;2022-08-03T13:36:52;45.80;24.60
21807;DHT22;11065;50.786;7.840;2022-08-03T13:39:39;45.80;24.50
21807;DHT22;11065;50.786;7.840;2022-08-03T13:42:26;45.80;24.60
21807;DHT22;11065;50.786;7.840;2022-08-03T13:44:53;45.80;24.60
21807;DHT22;11065;50.786;7.840;2022-08-03T13:47:20;45.80;24.70
21807;DHT22;11065;50.786;7.840;2022-08-03T13:49:47;45.80;24.70
21807;DHT22;11065;50.786;7.840;2022-08-03T13:52:31;45.80;24.60
21807;DHT22;11065;50.786;7.840;2022-08-03T13:54:59;45.80;24.70
21807;DHT22;11065;50.786;7.840;2022-08-03T13:57:26;45.80;24.60
21807;DHT22;11065;50.786;7.840;2022-08-03T14:00:14;45.80;24.60
21807;DHT22;11065;50.786;7.840;2022-08-03T14:02:56;45.80;24.40
21807;DHT22;11065;50.786;7.840;2022-08-03T14:05:35;45.80;24.50
21807;DHT22;11065;50.786;7.840;2022-08-03T14:08:04;45.80;24.50
21807;DHT22;11065;50.786;7.840;2022-08-03T14:10:37;45.70;24.50
21807;DHT22;11065;50.786;7.840;2022-08-03T14:13:04;45.80;24.50
21807;DHT22;11065;50.786;7.840;2022-08-03T14:15:31;45.70;24.50
21807;DHT22;11065;50.786;7.840;2022-08-03T14:18:07;45.70;24.50
21807;DHT22;11065;50.786;7.840;2022-08-03T14:20:42;45.60;24.40
21807;DHT22;11065;50.786;7.840;2022-08-03T14:23:17;45.50;24.40
21807;DHT22;11065;50.786;7.840;2022-08-03T14:25:44;45.50;24.50
21807;DHT22;11065;50.786;7.840;2022-08-03T14:28:19;45.50;24.60
21807;DHT22;11065;50.786;7.840;2022-08-03T14:30:48;45.50;24.50
21807;DHT22;11065;50.786;7.840;2022-08-03T14:33:15;45.40;24.50
21807;DHT22;11065;50.786;7.840;2022-08-03T14:35:41;45.40;24.30
21807;DHT22;11065;50.786;7.840;2022-08-03T14:38:08;45.40;24.20
21807;DHT22;11065;50.786;7.840;2022-08-03T14:40:35;45.40;24.40
21807;DHT22;11065;50.786;7.840;2022-08-03T14:43:02;45.30;24.40
21807;DHT22;11065;50.786;7.840;2022-08-03T14:45:29;45.30;24.50
21807;DHT22;11065;50.786;7.840;2022-08-03T14:47:56;45.30;24.50
21807;DHT22;11065;50.786;7.840;2022-08-03T14:50:45;45.30;24.50
21807;DHT22;11065;50.786;7.840;2022-08-03T14:53:17;45.30;24.40
21807;DHT22;11065;50.786;7.840;2022-08-03T14:55:45;45.30;24.40
21807;DHT22;11065;50.786;7.840;2022-08-03T14:58:17;45.30;24.50
21807;DHT22;11065;50.786;7.840;2022-08-03T15:00:47;45.20;24.40
21807;DHT22;11065;50.786;7.840;2022-08-03T15:03:14;45.20;24.30
21807;DHT22;11065;50.786;7.840;2022-08-03T15:05:43;45.10;24.40
21807;DHT22;11065;50.786;7.840;2022-08-03T15:08:10;45.10;24.40
21807;DHT22;11065;50.786;7.840;2022-08-03T15:10:37;45.10;24.60
21807;DHT22;11065;50.786;7.840;2022-08-03T15:13:11;45.00;24.60
21807;DHT22;11065;50.786;7.840;2022-08-03T15:15:38;45.00;24.60
21807;DHT22;11065;50.786;7.840;2022-08-03T15:18:05;44.90;24.60
21807;DHT22;11065;50.786;7.840;2022-08-03T15:20:32;44.90;24.60
21807;DHT22;11065;50.786;7.840;2022-08-03T15:23:11;44.90;24.60
21807;DHT22;11065;50.786;7.840;2022-08-03T15:25:38;44.90;24.70
21807;DHT22;11065;50.786;7.840;2022-08-03T15:28:25;44.90;24.60
21807;DHT22;11065;50.786;7.840;2022-08-03T15:30:52;44.70;24.60
21807;DHT22;11065;50.786;7.840;2022-08-03T15:33:19;44.60;24.50
21807;DHT22;11065;50.786;7.840;2022-08-03T15:35:46;44.30;24.40
21807;DHT22;11065;50.786;7.840;2022-08-03T15:38:13;44.10;24.40
21807;DHT22;11065;50.786;7.840;2022-08-03T15:40:40;43.80;24.40
21807;DHT22;11065;50.786;7.840;2022-08-03T15:43:07;43.60;24.40
21807;DHT22;11065;50.786;7.840;2022-08-03T15:45:35;43.40;24.50
21807;DHT22;11065;50.786;7.840;2022-08-03T15:48:05;43.30;24.60
21807;DHT22;11065;50.786;7.840;2022-08-03T15:50:32;43.20;24.60
21807;DHT22;11065;50.786;7.840;2022-08-03T15:52:59;43.10;24.70
21807;DHT22;11065;50.786;7.840;2022-08-03T15:55:26;43.00;24.70
21807;DHT22;11065;50.786;7.840;2022-08-03T15:57:53;43.00;24.80
21807;DHT22;11065;50.786;7.840;2022-08-03T16:00:41;42.90;24.70
21807;DHT22;11065;50.786;7.840;2022-08-03T16:03:09;42.90;24.70
21807;DHT22;11065;50.786;7.840;2022-08-03T16:05:37;42.90;24.90
21807;DHT22;11065;50.786;7.840;2022-08-03T16:08:03;42.80;24.80
21807;DHT22;11065;50.786;7.840;2022-08-03T16:10:37;42.80;24.70
21807;DHT22;11065;50.786;7.840;2022-08-03T16:13:05;42.80;24.80
21807;DHT22;11065;50.786;7.840;2022-08-03T16:15:32;42.60;24.90
21807;DHT22;11065;50.786;7.840;2022-08-03T16:18:07;42.60;24.90
21807;DHT22;11065;50.786;7.840;2022-08-03T16:20:34;42.50;24.90
21807;DHT22;11065;50.786;7.840;2022-08-03T16:23:03;42.50;25.00
21807;DHT22;11065;50.786;7.840;2022-08-03T16:25:38;42.30;25.00
21807;DHT22;11065;50.786;7.840;2022-08-03T16:28:06;42.30;25.10
21807;DHT22;11065;50.786;7.840;2022-08-03T16:30:41;42.10;24.90
21807;DHT22;11065;50.786;7.840;2022-08-03T16:33:10;42.10;25.00
21807;DHT22;11065;50.786;7.840;2022-08-03T16:35:44;42.00;25.10
21807;DHT22;11065;50.786;7.840;2022-08-03T16:38:11;41.90;25.00
21807;DHT22;11065;50.786;7.840;2022-08-03T16:40:44;41.80;25.10
21807;DHT22;11065;50.786;7.840;2022-08-03T16:43:13;41.70;25.60
21807;DHT22;11065;50.786;7.840;2022-08-03T16:45:47;41.60;25.20
21807;DHT22;11065;50.786;7.840;2022-08-03T16:48:16;41.50;25.20
21807;DHT22;11065;50.786;7.840;2022-08-03T16:50:43;41.30;25.10
21807;DHT22;11065;50.786;7.840;2022-08-03T16:53:11;41.20;25.20